createdAt,value
2022-12-11T00:01:32.713Z,100527.91
2022-12-11T00:03:36.190Z,100524.97
2022-12-11T00:05:40.712Z,100531.09
2022-12-11T00:07:44.137Z,100532.13
2022-12-11T00:09:47.554Z,100527.09
2022-12-11T00:11:51.009Z,100520.81
2022-12-11T00:13:54.378Z,100526.19
2022-12-11T00:15:59.603Z,100506.53
2022-12-11T00:18:04.428Z,100526.94
2022-12-11T00:20:09.084Z,100534.50
2022-12-11T00:22:12.605Z,100527.66
2022-12-11T00:24:15.922Z,100530.00
2022-12-11T00:26:19.672Z,100513.25
2022-12-11T00:28:23.378Z,100529.03
2022-12-11T00:30:26.708Z,100519.94
2022-12-11T00:32:36.231Z,100529.47
2022-12-11T00:34:42.418Z,100535.13
2022-12-11T00:36:45.747Z,100532.94
2022-12-11T00:38:50.106Z,100519.13
2022-12-11T00:40:53.511Z,100530.16
2022-12-11T00:42:56.816Z,100532.09
2022-12-11T00:45:00.078Z,100520.63
2022-12-11T00:47:03.496Z,100528.41
2022-12-11T00:49:06.831Z,100520.88
2022-12-11T00:51:11.677Z,100525.63
2022-12-11T00:53:15.721Z,100526.44
2022-12-11T00:55:19.349Z,100521.66
2022-12-11T00:57:22.627Z,100515.22
2022-12-11T00:59:26.003Z,100510.75
2022-12-11T01:01:29.419Z,100519.88
2022-12-11T01:03:32.734Z,100513.50
2022-12-11T01:05:36.384Z,100505.38
2022-12-11T01:07:41.138Z,100519.34
2022-12-11T01:10:13.606Z,100517.16
2022-12-11T01:12:17.088Z,100524.88
2022-12-11T01:14:20.490Z,100517.53
2022-12-11T01:16:23.862Z,100516.94
2022-12-11T01:18:28.643Z,100519.41
2022-12-11T01:20:32.087Z,100509.09
2022-12-11T01:22:35.374Z,100528.91
2022-12-11T01:24:40.013Z,100529.81
2022-12-11T01:26:43.332Z,100532.13
2022-12-11T01:28:49.804Z,100531.16
2022-12-11T01:30:53.097Z,100527.41
2022-12-11T01:32:56.477Z,100532.78
2022-12-11T01:34:59.791Z,100524.63
2022-12-11T01:37:03.109Z,100519.69
2022-12-11T01:39:06.571Z,100521.38
2022-12-11T01:41:11.792Z,100518.06
2022-12-11T01:43:15.186Z,100522.19
2022-12-11T01:45:36.433Z,100511.84
2022-12-11T01:47:40.393Z,100512.50
2022-12-11T01:49:44.516Z,100508.22
2022-12-11T01:51:54.254Z,100516.63
2022-12-11T01:54:02.069Z,100514.88
2022-12-11T01:56:07.884Z,100512.22
2022-12-11T01:58:13.811Z,100511.03
2022-12-11T02:00:17.971Z,100507.44
2022-12-11T02:02:25.501Z,100515.25
2022-12-11T02:04:30.007Z,100514.06
2022-12-11T02:06:37.067Z,100506.75
2022-12-11T02:08:40.354Z,100501.91
2022-12-11T02:10:54.133Z,100494.97
2022-12-11T02:13:02.564Z,100501.72
2022-12-11T02:15:13.490Z,100501.44
2022-12-11T02:17:22.850Z,100508.00
2022-12-11T02:19:45.329Z,100507.00
2022-12-11T02:21:52.742Z,100506.00
2022-12-11T02:24:17.105Z,100496.63
2022-12-11T02:26:33.994Z,100441.06
2022-12-11T02:28:43.843Z,100497.00
2022-12-11T02:30:51.943Z,100496.44
2022-12-11T02:32:57.874Z,100496.44
2022-12-11T02:35:09.462Z,100490.22
2022-12-11T02:37:19.881Z,100491.63
2022-12-11T02:39:26.469Z,100498.06
2022-12-11T02:41:31.120Z,100490.47
2022-12-11T02:43:36.241Z,100490.13
2022-12-11T02:45:42.882Z,100487.66
2022-12-11T02:47:48.997Z,100491.94
2022-12-11T02:49:54.125Z,100487.47
2022-12-11T02:51:59.030Z,100464.84
2022-12-11T02:54:04.167Z,100489.34
2022-12-11T02:56:12.270Z,100491.59
2022-12-11T02:58:19.235Z,100484.47
2022-12-11T03:00:22.628Z,100484.75
2022-12-11T03:02:27.469Z,100474.06
2022-12-11T03:04:31.309Z,100473.09
2022-12-11T03:06:38.798Z,100472.88
2022-12-11T03:08:42.170Z,100480.22
2022-12-11T03:10:45.723Z,100477.13
2022-12-11T03:12:53.748Z,100393.03
2022-12-11T03:15:00.314Z,100477.38
2022-12-11T03:17:16.107Z,100479.75
2022-12-11T03:19:29.140Z,100484.59
2022-12-11T03:21:38.364Z,100479.31
2022-12-11T03:23:50.030Z,100467.44
2022-12-11T03:25:56.368Z,100481.25
2022-12-11T03:28:08.434Z,100489.13
2022-12-11T03:30:16.225Z,100492.72
2022-12-11T03:32:23.122Z,100485.97
2022-12-11T03:34:32.341Z,100489.00
2022-12-11T03:36:38.451Z,100490.59
2022-12-11T03:38:48.376Z,100493.97
2022-12-11T03:40:57.125Z,100492.56
2022-12-11T03:43:01.623Z,100487.19
2022-12-11T03:45:08.559Z,100495.59
2022-12-11T03:47:16.140Z,100494.75
2022-12-11T03:49:23.856Z,100481.19
2022-12-11T03:51:30.999Z,100489.59
2022-12-11T03:53:36.297Z,100489.25
2022-12-11T03:55:41.804Z,100480.81
2022-12-11T03:57:45.515Z,100474.97
2022-12-11T03:59:49.607Z,100483.09
2022-12-11T04:01:53.353Z,100486.22
2022-12-11T04:03:57.042Z,100483.63
2022-12-11T04:06:00.415Z,100475.25
2022-12-11T04:08:05.422Z,100480.31
2022-12-11T04:10:09.116Z,100476.06
2022-12-11T04:12:12.435Z,100483.09
2022-12-11T04:14:33.790Z,100476.19
2022-12-11T04:16:37.103Z,100476.53
2022-12-11T04:18:58.046Z,100475.47
2022-12-11T04:21:19.082Z,100470.94
2022-12-11T04:23:41.180Z,100467.03
2022-12-11T04:25:44.483Z,100469.38
2022-12-11T04:27:50.428Z,100467.50
2022-12-11T04:29:53.710Z,100471.94
2022-12-11T04:31:57.093Z,100467.28
2022-12-11T04:34:00.438Z,100469.91
2022-12-11T04:36:03.779Z,100470.03
2022-12-11T04:38:07.153Z,100465.41
2022-12-11T04:40:16.391Z,100471.59
2022-12-11T04:42:19.736Z,100466.28
2022-12-11T04:44:23.221Z,100464.41
2022-12-11T04:46:26.887Z,100462.44
2022-12-11T04:48:30.849Z,100465.13
2022-12-11T04:50:34.177Z,100460.28
2022-12-11T04:52:37.535Z,100463.16
2022-12-11T04:54:41.007Z,100455.38
2022-12-11T04:56:45.641Z,100448.88
2022-12-11T04:58:50.539Z,100453.56
2022-12-11T05:00:54.298Z,100456.25
2022-12-11T05:02:57.664Z,100451.66
2022-12-11T05:05:00.989Z,100407.19
2022-12-11T05:07:04.381Z,100453.94
2022-12-11T05:09:08.763Z,100435.94
2022-12-11T05:11:14.676Z,100454.72
2022-12-11T05:13:19.349Z,100451.66
2022-12-11T05:15:22.628Z,100444.38
2022-12-11T05:17:25.990Z,100451.25
2022-12-11T05:19:29.374Z,100448.88
2022-12-11T05:21:35.198Z,100444.47
2022-12-11T05:23:39.131Z,100450.06
2022-12-11T05:25:42.408Z,100450.66
2022-12-11T05:27:45.785Z,100453.41
2022-12-11T05:29:54.808Z,100451.06
2022-12-11T05:32:01.240Z,100451.38
2022-12-11T05:34:04.529Z,100456.03
2022-12-11T05:36:09.037Z,100408.69
2022-12-11T05:38:12.610Z,100447.97
2022-12-11T05:40:15.947Z,100443.56
2022-12-11T05:42:22.785Z,100446.31
2022-12-11T05:44:28.752Z,100447.16
2022-12-11T05:46:33.492Z,100446.19
2022-12-11T05:48:38.700Z,100444.28
2022-12-11T05:50:42.120Z,100447.84
2022-12-11T05:52:45.406Z,100440.66
2022-12-11T05:54:50.320Z,100427.38
2022-12-11T05:56:53.592Z,100441.13
2022-12-11T05:58:57.403Z,100437.22
2022-12-11T06:01:01.667Z,100444.16
2022-12-11T06:03:06.545Z,100437.41
2022-12-11T06:05:10.526Z,100440.88
2022-12-11T06:07:14.251Z,100432.72
2022-12-11T06:09:17.828Z,100440.59
2022-12-11T06:11:24.126Z,100434.28
2022-12-11T06:13:28.030Z,100448.38
2022-12-11T06:15:31.401Z,100442.19
2022-12-11T06:17:34.891Z,100435.78
2022-12-11T06:19:40.948Z,100440.31
2022-12-11T06:21:44.389Z,100432.97
2022-12-11T06:23:49.334Z,100432.53
2022-12-11T06:25:52.693Z,100436.78
2022-12-11T06:27:56.179Z,100437.31
2022-12-11T06:29:59.472Z,100438.72
2022-12-11T06:32:03.363Z,100437.22
2022-12-11T06:34:06.728Z,100435.19
2022-12-11T06:36:12.866Z,100442.19
2022-12-11T06:38:16.160Z,100436.19
2022-12-11T06:40:19.537Z,100436.06
2022-12-11T06:42:22.858Z,100440.59
2022-12-11T06:44:26.273Z,100432.78
2022-12-11T06:46:29.693Z,100441.41
2022-12-11T06:48:33.641Z,100438.75
2022-12-11T06:50:39.052Z,100381.94
2022-12-11T06:52:43.667Z,100437.75
2022-12-11T06:54:47.156Z,100437.75
2022-12-11T06:56:50.477Z,100434.56
2022-12-11T06:58:53.961Z,100443.44
2022-12-11T07:00:57.389Z,100441.03
2022-12-11T07:03:00.757Z,100441.22
2022-12-11T07:05:04.714Z,100447.50
2022-12-11T07:07:08.094Z,100444.31
2022-12-11T07:09:13.100Z,100446.06
2022-12-11T07:11:19.048Z,100449.53
2022-12-11T07:13:22.495Z,100448.66
2022-12-11T07:15:27.078Z,100449.78
2022-12-11T07:17:31.181Z,100450.31
2022-12-11T07:19:34.522Z,100452.19
2022-12-11T07:21:38.184Z,100456.72
2022-12-11T07:23:41.956Z,100451.31
2022-12-11T07:25:46.680Z,100455.22
2022-12-11T07:27:50.114Z,100457.25
2022-12-11T07:29:54.994Z,100462.75
2022-12-11T07:31:58.482Z,100460.72
2022-12-11T07:34:05.051Z,100456.88
2022-12-11T07:36:10.626Z,100458.91
2022-12-11T07:38:13.925Z,100462.50
2022-12-11T07:40:17.637Z,100462.56
2022-12-11T07:42:22.324Z,100460.81
2022-12-11T07:44:25.725Z,100466.31
2022-12-11T07:46:30.634Z,100460.28
2022-12-11T07:48:36.123Z,100457.78
2022-12-11T07:50:40.046Z,100456.91
2022-12-11T07:52:43.401Z,100452.81
2022-12-11T07:54:46.710Z,100451.50
2022-12-11T07:56:53.734Z,100447.78
2022-12-11T07:59:00.540Z,100444.13
2022-12-11T08:01:03.903Z,100448.56
2022-12-11T08:03:07.262Z,100448.75
2022-12-11T08:05:12.364Z,100449.53
2022-12-11T08:07:15.874Z,100445.13
2022-12-11T08:09:22.499Z,100441.66
2022-12-11T08:11:26.162Z,100443.78
2022-12-11T08:13:29.965Z,100441.56
2022-12-11T08:15:35.134Z,100448.22
2022-12-11T08:17:40.221Z,100441.47
2022-12-11T08:19:43.711Z,100439.72
2022-12-11T08:21:47.241Z,100443.25
2022-12-11T08:23:51.523Z,100450.34
2022-12-11T08:25:54.865Z,100448.91
2022-12-11T08:27:58.195Z,100450.88
2022-12-11T08:30:01.555Z,100450.44
2022-12-11T08:32:12.057Z,100455.84
2022-12-11T08:34:15.933Z,100415.53
2022-12-11T08:36:21.326Z,100448.06
2022-12-11T08:38:25.913Z,100452.91
2022-12-11T08:40:29.365Z,100446.38
2022-12-11T08:42:32.721Z,100445.56
2022-12-11T08:44:36.065Z,100450.34
2022-12-11T08:46:39.765Z,100447.50
2022-12-11T08:48:44.869Z,100445.47
2022-12-11T08:50:48.141Z,100443.16
2022-12-11T08:52:51.457Z,100448.84
2022-12-11T08:54:54.824Z,100441.69
2022-12-11T08:56:58.490Z,100439.97
2022-12-11T08:59:02.784Z,100431.41
2022-12-11T09:01:10.721Z,100446.28
2022-12-11T09:03:14.322Z,100446.72
2022-12-11T09:05:19.105Z,100445.56
2022-12-11T09:07:22.452Z,100442.28
2022-12-11T09:09:25.771Z,100441.66
2022-12-11T09:11:31.753Z,100443.00
2022-12-11T09:13:35.150Z,100445.09
2022-12-11T09:15:41.528Z,100446.97
2022-12-11T09:17:44.972Z,100445.09
2022-12-11T09:19:48.303Z,100447.16
2022-12-11T09:21:53.073Z,100450.75
2022-12-11T09:23:58.666Z,100448.19
2022-12-11T09:26:04.954Z,100451.56
2022-12-11T09:28:08.268Z,100450.59
2022-12-11T09:30:12.273Z,100453.25
2022-12-11T09:32:15.644Z,100446.78
2022-12-11T09:34:19.077Z,100454.41
2022-12-11T09:36:22.376Z,100456.81
2022-12-11T09:38:27.136Z,100444.13
2022-12-11T09:40:30.843Z,100448.31
2022-12-11T09:42:49.166Z,100442.72
2022-12-11T09:44:55.419Z,100441.09
2022-12-11T09:46:59.600Z,100443.00
2022-12-11T09:49:03.818Z,100452.44
2022-12-11T09:51:17.029Z,100455.56
2022-12-11T09:53:31.077Z,100441.94
2022-12-11T09:55:50.986Z,100446.72
2022-12-11T09:58:00.583Z,100434.66
2022-12-11T10:00:13.509Z,100416.59
2022-12-11T10:02:31.660Z,100442.19
2022-12-11T10:04:46.847Z,100441.25
2022-12-11T10:07:07.539Z,100439.84
2022-12-11T10:09:20.591Z,100443.03
2022-12-11T10:11:43.252Z,100446.25
2022-12-11T10:13:55.819Z,100439.97
2022-12-11T10:16:03.291Z,100437.28
2022-12-11T10:18:12.545Z,100436.94
2022-12-11T10:20:23.364Z,100437.22
2022-12-11T10:22:31.382Z,100414.25
2022-12-11T10:25:10.060Z,100423.19
2022-12-11T10:27:16.018Z,100425.59
2022-12-11T10:29:19.377Z,100418.09
2022-12-11T10:31:33.047Z,100417.16
2022-12-11T10:33:42.600Z,100410.06
2022-12-11T10:35:49.390Z,100419.28
2022-12-11T10:37:56.826Z,100417.16
2022-12-11T10:40:00.143Z,100415.13
2022-12-11T10:42:17.473Z,100409.72
2022-12-11T10:44:23.022Z,100352.66
2022-12-11T10:46:28.573Z,100389.81
2022-12-11T10:48:32.119Z,100396.19
2022-12-11T10:50:35.455Z,100400.28
2022-12-11T10:52:44.982Z,100398.59
2022-12-11T10:54:55.828Z,100375.91
2022-12-11T10:57:00.311Z,100393.22
2022-12-11T10:59:05.649Z,100362.31
2022-12-11T11:01:11.683Z,100391.81
2022-12-11T11:03:23.695Z,100386.50
2022-12-11T11:05:34.224Z,100390.13
2022-12-11T11:07:37.677Z,100386.03
2022-12-11T11:09:41.906Z,100387.38
2022-12-11T11:11:51.261Z,100380.56
2022-12-11T11:14:14.535Z,100367.09
2022-12-11T11:16:21.053Z,100377.06
2022-12-11T11:18:27.585Z,100381.53
2022-12-11T11:20:32.605Z,100380.69
2022-12-11T11:22:42.960Z,100377.94
2022-12-11T11:24:53.210Z,100377.06
2022-12-11T11:27:12.786Z,100380.50
2022-12-11T11:29:28.560Z,100381.97
2022-12-11T11:31:34.546Z,100383.75
2022-12-11T11:33:46.412Z,100376.03
2022-12-11T11:35:53.851Z,100375.47
2022-12-11T11:38:05.619Z,100367.13
2022-12-11T11:40:16.146Z,100355.50
2022-12-11T11:42:27.536Z,100359.47
2022-12-11T11:44:38.776Z,100363.50
2022-12-11T11:46:48.823Z,100354.38
2022-12-11T11:49:00.227Z,100362.41
2022-12-11T11:51:13.876Z,100359.22
2022-12-11T11:53:23.488Z,100339.63
2022-12-11T11:55:39.067Z,100346.22
2022-12-11T11:57:46.760Z,100339.38
2022-12-11T11:59:55.560Z,100346.34
2022-12-11T12:01:59.574Z,100356.94
2022-12-11T12:04:04.720Z,100357.00
2022-12-11T12:06:17.227Z,100353.44
2022-12-11T12:08:31.758Z,100330.22
2022-12-11T12:10:45.161Z,100354.78
2022-12-11T12:12:57.357Z,100356.31
2022-12-11T12:15:18.267Z,100353.75
2022-12-11T12:17:31.203Z,100347.72
2022-12-11T12:19:46.248Z,100352.63
2022-12-11T12:21:53.108Z,100354.38
2022-12-11T12:24:09.582Z,100342.88
2022-12-11T12:26:18.149Z,100344.16
2022-12-11T12:28:33.013Z,100333.34
2022-12-11T12:30:51.914Z,100340.03
2022-12-11T12:33:11.801Z,100351.28
2022-12-11T12:35:25.414Z,100336.47
2022-12-11T12:37:45.778Z,100341.69
2022-12-11T12:39:58.425Z,100341.94
2022-12-11T12:42:12.357Z,100333.19
2022-12-11T12:44:18.225Z,100335.66
2022-12-11T12:46:34.161Z,100328.50
2022-12-11T12:48:37.669Z,100333.25
2022-12-11T12:50:44.683Z,100323.63
2022-12-11T12:52:49.887Z,100321.34
2022-12-11T12:55:16.449Z,100321.19
2022-12-11T12:57:20.077Z,100318.59
2022-12-11T12:59:25.079Z,100318.22
2022-12-11T13:01:32.337Z,100321.56
2022-12-11T13:03:38.865Z,100297.59
2022-12-11T13:05:44.492Z,100322.97
2022-12-11T13:07:54.259Z,100319.38
2022-12-11T13:10:06.553Z,100315.69
2022-12-11T13:12:15.573Z,100318.94
2022-12-11T13:14:29.593Z,100317.44
2022-12-11T13:16:39.025Z,100314.34
2022-12-11T13:18:44.791Z,100322.38
2022-12-11T13:20:51.075Z,100314.94
2022-12-11T13:23:11.288Z,100311.31
2022-12-11T13:25:28.547Z,100307.53
2022-12-11T13:27:39.815Z,100307.47
2022-12-11T13:29:43.673Z,100316.84
2022-12-11T13:31:59.304Z,100313.69
2022-12-11T13:34:16.126Z,100314.50
2022-12-11T13:36:29.581Z,100307.13
2022-12-11T13:38:33.011Z,100323.28
2022-12-11T13:40:41.090Z,100328.69
2022-12-11T13:42:50.426Z,100324.59
2022-12-11T13:44:53.879Z,100320.34
2022-12-11T13:47:01.502Z,100324.28
2022-12-11T13:49:07.031Z,100332.38
2022-12-11T13:51:17.828Z,100321.44
2022-12-11T13:53:22.762Z,100323.94
2022-12-11T13:55:28.281Z,100334.88
2022-12-11T13:57:31.845Z,100328.38
2022-12-11T13:59:37.011Z,100332.16
2022-12-11T14:01:40.929Z,100337.03
2022-12-11T14:03:53.920Z,100328.25
2022-12-11T14:05:57.362Z,100321.75
2022-12-11T14:08:08.289Z,100313.38
2022-12-11T14:10:19.068Z,100332.66
2022-12-11T14:12:22.951Z,100332.50
2022-12-11T14:14:36.067Z,100331.72
2022-12-11T14:16:39.471Z,100330.28
2022-12-11T14:18:42.839Z,100333.00
2022-12-11T14:20:54.199Z,100329.69
2022-12-11T14:23:06.343Z,100330.59
2022-12-11T14:25:22.056Z,100339.25
2022-12-11T14:27:26.224Z,100343.75
2022-12-11T14:29:32.252Z,100339.22
2022-12-11T14:31:38.266Z,100331.44
2022-12-11T14:33:44.928Z,100337.16
2022-12-11T14:35:51.475Z,100343.75
2022-12-11T14:37:55.912Z,100338.25
2022-12-11T14:40:02.654Z,100343.13
2022-12-11T14:42:11.742Z,100355.00
2022-12-11T14:44:17.742Z,100350.84
2022-12-11T14:46:27.458Z,100354.25
2022-12-11T14:48:37.277Z,100356.59
2022-12-11T14:50:43.893Z,100355.09
2022-12-11T14:52:51.926Z,100349.38
2022-12-11T14:54:59.176Z,100347.56
2022-12-11T14:57:06.200Z,100340.75
2022-12-11T14:59:19.263Z,100344.53
2022-12-11T15:01:26.437Z,100350.94
2022-12-11T15:03:34.346Z,100356.00
2022-12-11T15:05:41.039Z,100353.50
2022-12-11T15:07:54.676Z,100356.34
2022-12-11T15:09:59.341Z,100356.25
2022-12-11T15:12:12.294Z,100357.94
2022-12-11T15:14:20.696Z,100356.41
2022-12-11T15:16:27.704Z,100341.94
2022-12-11T15:18:34.438Z,100350.22
2022-12-11T15:20:38.215Z,100358.66
2022-12-11T15:22:44.398Z,100352.63
2022-12-11T15:24:52.529Z,100357.53
2022-12-11T15:27:01.708Z,100350.00
2022-12-11T15:29:07.725Z,100361.94
2022-12-11T15:31:26.419Z,100363.31
2022-12-11T15:33:34.280Z,100360.56
2022-12-11T15:35:39.786Z,100357.72
2022-12-11T15:37:53.378Z,100366.66
2022-12-11T15:39:58.653Z,100342.50
2022-12-11T15:42:03.450Z,100358.63
2022-12-11T15:44:07.041Z,100364.03
2022-12-11T15:46:10.584Z,100356.53
2022-12-11T15:48:14.017Z,100367.09
2022-12-11T15:50:20.811Z,100349.66
2022-12-11T15:52:24.355Z,100367.88
2022-12-11T15:54:28.030Z,100362.75
2022-12-11T15:56:31.600Z,100366.19
2022-12-11T15:58:36.709Z,100373.72
2022-12-11T16:00:40.064Z,100369.53
2022-12-11T16:02:43.821Z,100363.31
2022-12-11T16:04:47.200Z,100368.13
2022-12-11T16:06:50.722Z,100375.59
2022-12-11T16:08:54.112Z,100384.91
2022-12-11T16:10:57.590Z,100380.59
2022-12-11T16:13:02.528Z,100376.06
2022-12-11T16:15:08.340Z,100381.19
2022-12-11T16:17:12.784Z,100379.25
2022-12-11T16:19:16.235Z,100372.19
2022-12-11T16:21:21.515Z,100383.25
2022-12-11T16:23:25.267Z,100377.22
2022-12-11T16:25:29.079Z,100370.66
2022-12-11T16:27:32.382Z,100369.47
2022-12-11T16:29:36.971Z,100367.00
2022-12-11T16:31:41.695Z,100365.16
2022-12-11T16:33:45.049Z,100369.22
2022-12-11T16:35:48.386Z,100357.06
2022-12-11T16:37:52.574Z,100359.47
2022-12-11T16:39:55.974Z,100367.59
2022-12-11T16:41:59.292Z,100360.41
2022-12-11T16:44:03.620Z,100369.41
2022-12-11T16:46:07.663Z,100374.03
2022-12-11T16:48:12.498Z,100367.91
2022-12-11T16:50:17.729Z,100369.97
2022-12-11T16:52:22.414Z,100366.66
2022-12-11T16:54:25.912Z,100373.53
2022-12-11T16:56:29.208Z,100370.94
2022-12-11T16:58:32.844Z,100364.19
2022-12-11T17:00:36.142Z,100367.56
2022-12-11T17:02:39.554Z,100362.41
2022-12-11T17:04:46.144Z,100349.34
2022-12-11T17:06:52.595Z,100360.03
2022-12-11T17:08:56.075Z,100357.94
2022-12-11T17:10:59.398Z,100361.19
2022-12-11T17:13:02.728Z,100358.72
2022-12-11T17:15:06.975Z,100360.84
2022-12-11T17:17:10.539Z,100363.25
2022-12-11T17:19:15.248Z,100358.44
2022-12-11T17:21:22.222Z,100353.25
2022-12-11T17:23:26.055Z,100357.81
2022-12-11T17:25:29.416Z,100358.88
2022-12-11T17:27:32.760Z,100354.53
2022-12-11T17:29:36.258Z,100362.41
2022-12-11T17:31:40.308Z,100350.84
2022-12-11T17:33:44.161Z,100359.69
2022-12-11T17:35:47.506Z,100349.84
2022-12-11T17:37:52.520Z,100352.78
2022-12-11T17:39:55.874Z,100356.16
2022-12-11T17:41:59.286Z,100351.91
2022-12-11T17:44:02.712Z,100352.59
2022-12-11T17:46:06.804Z,100355.81
2022-12-11T17:48:10.512Z,100353.41
2022-12-11T17:50:14.053Z,100354.19
2022-12-11T17:52:17.457Z,100358.44
2022-12-11T17:54:22.512Z,100335.34
2022-12-11T17:56:26.170Z,100352.00
2022-12-11T17:58:29.824Z,100354.56
2022-12-11T18:00:33.576Z,100366.19
2022-12-11T18:02:36.963Z,100354.94
2022-12-11T18:04:40.706Z,100359.63
2022-12-11T18:06:44.142Z,100353.78
2022-12-11T18:08:47.465Z,100354.13
2022-12-11T18:10:53.208Z,100356.16
2022-12-11T18:12:56.728Z,100346.41
2022-12-11T18:15:01.537Z,100337.13
2022-12-11T18:17:05.231Z,100347.13
2022-12-11T18:19:09.276Z,100356.50
2022-12-11T18:21:14.458Z,100348.28
2022-12-11T18:23:18.110Z,100339.63
2022-12-11T18:25:22.630Z,100344.81
2022-12-11T18:27:29.252Z,100366.19
2022-12-11T18:29:32.866Z,100362.44
2022-12-11T18:31:41.915Z,100362.44
2022-12-11T18:33:46.870Z,100363.16
2022-12-11T18:35:51.748Z,100358.72
2022-12-11T18:37:55.230Z,100366.00
2022-12-11T18:39:58.931Z,100370.72
2022-12-11T18:42:31.585Z,100363.44
2022-12-11T18:44:27.624Z,100370.34
2022-12-11T18:46:31.331Z,100368.03
2022-12-11T18:48:35.114Z,100365.91
2022-12-11T18:50:46.350Z,100359.25
2022-12-11T18:52:54.064Z,100366.34
2022-12-11T18:54:57.666Z,100364.56
2022-12-11T18:57:01.250Z,100366.91
2022-12-11T18:59:05.111Z,100363.97
2022-12-11T19:01:12.621Z,100356.88
2022-12-11T19:03:16.173Z,100356.00
2022-12-11T19:05:20.182Z,100350.50
2022-12-11T19:07:23.793Z,100343.94
2022-12-11T19:09:27.415Z,100361.75
2022-12-11T19:11:32.471Z,100363.06
2022-12-11T19:13:36.668Z,100365.47
2022-12-11T19:15:40.925Z,100357.69
2022-12-11T19:17:45.867Z,100359.59
2022-12-11T19:19:49.460Z,100360.13
2022-12-11T19:21:52.821Z,100362.53
2022-12-11T19:23:56.258Z,100368.41
2022-12-11T19:25:59.582Z,100361.75
2022-12-11T19:28:02.995Z,100361.38
2022-12-11T19:30:07.332Z,100355.47
2022-12-11T19:32:10.783Z,100366.59
2022-12-11T19:34:15.604Z,100367.06
2022-12-11T19:36:20.781Z,100369.53
2022-12-11T19:38:24.147Z,100352.63
2022-12-11T19:40:27.532Z,100359.44
2022-12-11T19:42:30.853Z,100362.91
2022-12-11T19:44:34.192Z,100369.00
2022-12-11T19:46:37.653Z,100363.16
2022-12-11T19:48:41.757Z,100352.69
2022-12-11T19:50:46.672Z,100363.50
2022-12-11T19:52:49.986Z,100361.28
2022-12-11T19:54:53.424Z,100363.50
2022-12-11T19:56:56.775Z,100350.91
2022-12-11T19:59:00.772Z,100364.09
2022-12-11T20:01:05.055Z,100363.31
2022-12-11T20:03:08.473Z,100363.09
2022-12-11T20:05:12.189Z,100358.94
2022-12-11T20:07:17.013Z,100352.28
2022-12-11T20:09:20.451Z,100355.22
2022-12-11T20:11:23.916Z,100364.25
2022-12-11T20:13:27.219Z,100353.19
2022-12-11T20:15:31.816Z,100339.28
2022-12-11T20:17:36.715Z,100356.50
2022-12-11T20:19:40.427Z,100357.66
2022-12-11T20:21:44.476Z,100362.34
2022-12-11T20:23:49.575Z,100348.16
2022-12-11T20:25:58.707Z,100359.16
2022-12-11T20:28:02.328Z,100355.81
2022-12-11T20:30:07.384Z,100358.94
2022-12-11T20:32:12.225Z,100361.25
2022-12-11T20:34:15.916Z,100358.16
2022-12-11T20:36:21.472Z,100352.06
2022-12-11T20:38:26.865Z,100356.50
2022-12-11T20:40:34.775Z,100357.38
2022-12-11T20:42:38.118Z,100352.78
2022-12-11T20:44:47.191Z,100350.50
2022-12-11T20:46:52.227Z,100346.94
2022-12-11T20:48:58.399Z,100340.03
2022-12-11T20:51:02.003Z,100346.13
2022-12-11T20:53:05.384Z,100338.94
2022-12-11T20:55:10.556Z,100338.50
2022-12-11T20:57:16.354Z,100334.31
2022-12-11T20:59:19.996Z,100332.56
2022-12-11T21:01:25.346Z,100341.78
2022-12-11T21:03:29.654Z,100346.81
2022-12-11T21:05:33.011Z,100343.38
2022-12-11T21:07:36.350Z,100335.75
2022-12-11T21:09:41.012Z,100350.47
2022-12-11T21:11:44.955Z,100359.06
2022-12-11T21:13:49.873Z,100351.97
2022-12-11T21:15:56.624Z,100352.31
2022-12-11T21:18:00.045Z,100361.97
2022-12-11T21:20:03.420Z,100358.97
2022-12-11T21:22:06.723Z,100352.69
2022-12-11T21:24:16.243Z,100350.63
2022-12-11T21:26:20.635Z,100351.91
2022-12-11T21:28:23.928Z,100343.03
2022-12-11T21:30:28.654Z,100348.88
2022-12-11T21:32:32.254Z,100345.75
2022-12-11T21:34:35.608Z,100348.59
2022-12-11T21:36:39.777Z,100342.13
2022-12-11T21:38:45.138Z,100349.75
2022-12-11T21:40:48.475Z,100348.06
2022-12-11T21:42:51.800Z,100354.25
2022-12-11T21:47:21.121Z,100353.13
2022-12-11T21:49:24.496Z,100347.28
2022-12-11T21:51:35.965Z,100355.59
2022-12-11T21:53:41.225Z,100358.78
2022-12-11T21:55:44.580Z,100348.50
2022-12-11T21:57:47.924Z,100353.31
2022-12-11T21:59:51.186Z,100352.66
2022-12-11T22:01:54.684Z,100364.97
2022-12-11T22:03:59.886Z,100356.38
2022-12-11T22:06:03.236Z,100361.97
2022-12-11T22:08:07.150Z,100372.88
2022-12-11T22:10:11.268Z,100373.75
2022-12-11T22:12:22.098Z,100378.47
2022-12-11T22:14:25.566Z,100379.00
2022-12-11T22:16:29.364Z,100373.34
2022-12-11T22:18:32.685Z,100381.75
2022-12-11T22:20:37.328Z,100377.94
2022-12-11T22:22:40.655Z,100366.41
2022-12-11T22:24:43.938Z,100367.06
2022-12-11T22:26:47.388Z,100373.72
2022-12-11T22:28:51.279Z,100368.41
2022-12-11T22:30:54.589Z,100375.22
2022-12-11T22:32:58.094Z,100351.28
2022-12-11T22:35:01.389Z,100392.13
2022-12-11T22:37:06.083Z,100394.00
2022-12-11T22:39:09.595Z,100395.50
2022-12-11T22:41:17.579Z,100395.25
2022-12-11T22:43:25.273Z,100400.72
2022-12-11T22:45:28.588Z,100398.22
2022-12-11T22:47:32.074Z,100390.78
2022-12-11T22:49:36.624Z,100396.91
2022-12-11T22:51:39.907Z,100402.78
2022-12-11T22:53:44.570Z,100368.13
2022-12-11T22:55:47.852Z,100387.63
2022-12-11T22:57:51.609Z,100384.59
2022-12-11T22:59:56.814Z,100395.31
2022-12-11T23:02:00.123Z,100399.94
2022-12-11T23:04:03.420Z,100380.69
2022-12-11T23:06:08.853Z,100338.97
2022-12-11T23:08:12.240Z,100385.81
2022-12-11T23:10:17.009Z,100389.72
2022-12-11T23:12:20.352Z,100388.59
2022-12-11T23:14:23.741Z,100397.53
2022-12-11T23:16:27.632Z,100361.22
2022-12-11T23:18:31.268Z,100393.25
2022-12-11T23:20:34.748Z,100393.91
2022-12-11T23:22:38.482Z,100391.25
2022-12-11T23:24:41.942Z,100395.31
2022-12-11T23:26:48.023Z,100402.78
2022-12-11T23:28:51.653Z,100408.53
2022-12-11T23:30:55.068Z,100411.63
2022-12-11T23:32:58.416Z,100401.78
2022-12-11T23:35:01.920Z,100402.84
2022-12-11T23:37:05.802Z,100401.25
2022-12-11T23:39:09.124Z,100406.56
2022-12-11T23:41:14.271Z,100396.56
2022-12-11T23:43:18.903Z,100411.59
2022-12-11T23:45:22.267Z,100399.06
2022-12-11T23:47:25.729Z,100405.94
2022-12-11T23:49:29.089Z,100405.75
2022-12-11T23:51:33.310Z,100404.81
2022-12-11T23:53:36.922Z,100408.16
2022-12-11T23:55:41.352Z,100406.31
2022-12-11T23:57:44.666Z,100412.00
2022-12-11T23:59:49.319Z,100405.97
